Time;durP1;ratioP1;P1;durP2;ratioP2;P2;SDS_P1;SDS_P2;PMS_P1;PMS_P2;Temp;Humidity;BMP_temperature;BMP_pressure;BME280_temperature;BME280_humidity;BME280_pressure;Samples;Min_cycle;Max_cycle;Signal;HPM_P1;HPM_P2
2022/04/01 00:01:03;;;;;;;12.20;7.78;;;-0.20;99.90;;;;;;5073265;28;20049;-71
2022/04/01 00:03:28;;;;;;;11.05;7.38;;;-0.20;99.90;;;;;;5058989;28;20045;-71
2022/04/01 00:05:54;;;;;;;10.15;7.43;;;-0.30;99.90;;;;;;5058309;28;20044;-71
2022/04/01 00:08:20;;;;;;;10.05;6.60;;;-0.30;99.90;;;;;;5062699;28;20040;-71
2022/04/01 00:10:45;;;;;;;12.52;7.78;;;-0.30;99.90;;;;;;5059116;28;20509;-71
2022/04/01 00:13:12;;;;;;;10.82;7.45;;;-0.40;99.90;;;;;;5054804;28;20033;-71
2022/04/01 00:15:38;;;;;;;11.70;7.25;;;-0.50;99.90;;;;;;5060798;28;20078;-71
2022/04/01 00:18:03;;;;;;;11.32;7.30;;;-0.50;99.90;;;;;;5046389;28;20479;-72
2022/04/01 00:20:29;;;;;;;10.38;7.32;;;-0.50;99.90;;;;;;5045208;28;20033;-71
2022/04/01 00:22:56;;;;;;;12.35;7.88;;;-0.50;99.90;;;;;;5045469;28;20048;-71
2022/04/01 00:25:22;;;;;;;11.75;7.78;;;-0.50;99.90;;;;;;5045114;28;20048;-71
2022/04/01 00:27:49;;;;;;;13.13;8.45;;;-0.60;99.90;;;;;;5045062;28;20033;-72
2022/04/01 00:30:15;;;;;;;11.43;7.75;;;-0.50;99.90;;;;;;5043891;28;20091;-71
2022/04/01 00:32:41;;;;;;;12.35;7.80;;;-0.50;99.90;;;;;;5043725;28;20064;-71
2022/04/01 00:35:07;;;;;;;13.02;7.80;;;-0.60;99.90;;;;;;5038709;28;20037;-72
2022/04/01 00:37:33;;;;;;;12.18;7.43;;;-0.60;99.90;;;;;;5041523;28;20037;-71
2022/04/01 00:39:59;;;;;;;15.68;7.95;;;-0.60;99.90;;;;;;5044573;28;20041;-71
2022/04/01 00:42:26;;;;;;;12.90;8.10;;;-0.60;99.90;;;;;;5045119;28;20037;-71
2022/04/01 00:44:52;;;;;;;14.73;8.43;;;-0.60;99.90;;;;;;5043437;28;20226;-71
2022/04/01 00:47:18;;;;;;;13.82;7.78;;;-0.50;99.90;;;;;;5044594;28;20300;-72
2022/04/01 00:49:46;;;;;;;17.92;8.77;;;-0.60;99.90;;;;;;5060379;28;20064;-71
2022/04/01 00:52:19;;;;;;;14.48;8.63;;;-0.60;99.90;;;;;;5044403;28;20048;-72
2022/04/01 00:54:45;;;;;;;12.68;7.57;;;-0.70;99.90;;;;;;5044926;28;20065;-71
2022/04/01 00:57:13;;;;;;;14.05;7.30;;;-0.70;99.90;;;;;;5041970;28;20064;-71
2022/04/01 00:59:39;;;;;;;12.40;7.78;;;-0.70;99.90;;;;;;5038235;28;20602;-71
2022/04/01 01:02:06;;;;;;;13.15;7.35;;;-0.80;99.90;;;;;;5043721;28;20045;-71
2022/04/01 01:04:31;;;;;;;15.30;7.88;;;-0.80;99.90;;;;;;5044227;28;20041;-71
2022/04/01 01:06:59;;;;;;;11.68;7.55;;;-0.80;99.90;;;;;;5059414;28;20076;-71
2022/04/01 01:09:25;;;;;;;12.95;7.68;;;-0.70;99.90;;;;;;5051409;28;20043;-70
2022/04/01 01:11:52;;;;;;;13.82;7.82;;;-0.70;99.90;;;;;;5045097;28;20083;-71
2022/04/01 01:14:28;;;;;;;12.40;7.90;;;-0.70;99.90;;;;;;5044601;28;20041;-71
2022/04/01 01:16:54;;;;;;;10.70;7.75;;;-0.70;99.90;;;;;;5060031;28;20041;-71
2022/04/01 01:19:20;;;;;;;10.68;7.35;;;-0.70;99.90;;;;;;5044391;28;20612;-71
2022/04/01 01:21:49;;;;;;;12.05;7.65;;;-0.70;99.90;;;;;;5059313;28;20139;-71
2022/04/01 01:24:15;;;;;;;11.75;7.55;;;-0.70;99.90;;;;;;5043793;28;20069;-71
2022/04/01 01:26:51;;;;;;;14.55;6.93;;;-0.80;99.90;;;;;;5044065;28;20036;-72
2022/04/01 01:29:39;;;;;;;14.20;7.03;;;-0.70;99.90;;;;;;5057360;28;20507;-71
2022/04/01 01:32:06;;;;;;;13.30;6.20;;;-0.80;99.90;;;;;;5058834;28;20037;-71
2022/04/01 01:34:32;;;;;;;11.38;6.57;;;-0.80;99.90;;;;;;5043193;28;20071;-71
2022/04/01 01:36:59;;;;;;;11.52;7.53;;;-0.80;99.90;;;;;;5043354;28;20752;-71
2022/04/01 01:39:25;;;;;;;11.23;7.20;;;-0.80;99.90;;;;;;5050787;28;20095;-71
2022/04/01 01:41:53;;;;;;;13.50;7.50;;;-0.80;99.90;;;;;;5043084;28;20041;-71
2022/04/01 01:44:20;;;;;;;16.50;8.20;;;-0.80;99.90;;;;;;5042050;28;20557;-72
2022/04/01 01:46:46;;;;;;;11.07;7.55;;;-0.80;99.90;;;;;;5043486;28;20489;-71
2022/04/01 01:49:12;;;;;;;15.75;8.45;;;-0.90;99.90;;;;;;5058478;28;20072;-71
2022/04/01 01:57:07;;;;;;;12.05;7.47;;;-0.90;99.90;;;;;;5042447;28;20048;-71
2022/04/01 01:59:34;;;;;;;11.82;7.65;;;-0.90;99.90;;;;;;5042870;28;20067;-71
2022/04/01 02:02:03;;;;;;;13.25;9.30;;;-0.80;99.90;;;;;;5041011;28;20029;-71
2022/04/01 02:04:29;;;;;;;15.52;9.50;;;-0.80;99.90;;;;;;5041748;28;20425;-71
2022/04/01 02:06:54;;;;;;;18.02;8.23;;;-0.90;99.90;;;;;;5053342;28;20044;-71
2022/04/01 02:09:21;;;;;;;13.30;7.60;;;-0.90;99.90;;;;;;5051655;28;20036;-71
2022/04/01 02:11:47;;;;;;;17.58;8.73;;;-0.90;99.90;;;;;;5037849;28;20178;-71
2022/04/01 02:14:12;;;;;;;14.85;8.70;;;-0.90;99.90;;;;;;5042257;28;20796;-71
2022/04/01 02:16:39;;;;;;;16.83;9.57;;;-1.00;99.90;;;;;;5042997;28;20049;-71
2022/04/01 02:19:05;;;;;;;14.48;8.63;;;-0.90;99.90;;;;;;5043174;28;20037;-71
2022/04/01 02:21:31;;;;;;;18.50;9.68;;;-0.90;99.90;;;;;;5042479;28;20702;-71
2022/04/01 02:23:56;;;;;;;19.65;9.25;;;-0.90;99.90;;;;;;5058358;28;20059;-71
2022/04/01 02:26:22;;;;;;;23.90;9.25;;;-0.90;99.90;;;;;;5042307;28;20052;-71
2022/04/01 02:28:48;;;;;;;14.77;9.27;;;-0.90;99.90;;;;;;5043334;28;20044;-71
2022/04/01 02:31:14;;;;;;;16.85;10.00;;;-0.90;99.90;;;;;;5041998;28;20079;-71
2022/04/01 02:33:42;;;;;;;14.93;8.85;;;-0.80;99.90;;;;;;5043077;28;20122;-71
2022/04/01 02:36:10;;;;;;;18.45;9.85;;;-0.80;99.90;;;;;;5042324;28;20808;-71
2022/04/01 02:38:38;;;;;;;18.10;8.65;;;-0.80;99.90;;;;;;5047684;28;21810;-71
2022/04/01 02:41:05;;;;;;;22.00;10.02;;;-0.80;99.90;;;;;;5041123;28;20088;-71
2022/04/01 02:43:32;;;;;;;20.15;9.48;;;-0.80;99.90;;;;;;5042437;28;20569;-71
2022/04/01 02:45:57;;;;;;;19.65;10.18;;;-0.80;99.90;;;;;;5057650;28;20052;-71
2022/04/01 02:48:23;;;;;;;14.25;9.40;;;-0.80;99.90;;;;;;5036172;28;20041;-71
2022/04/01 02:50:49;;;;;;;14.02;8.65;;;-0.80;99.90;;;;;;5042857;28;20041;-71
2022/04/01 02:53:16;;;;;;;17.45;9.40;;;-0.90;99.90;;;;;;5022383;28;20037;-71
2022/04/01 02:55:42;;;;;;;17.75;9.55;;;-0.90;99.90;;;;;;5040928;28;20120;-71
2022/04/01 02:58:09;;;;;;;19.55;9.93;;;-0.80;99.90;;;;;;5054017;28;20041;-71
2022/04/01 03:00:37;;;;;;;15.50;9.25;;;-0.80;99.90;;;;;;5057405;28;20033;-71
2022/04/01 03:03:06;;;;;;;15.02;8.93;;;-0.80;99.90;;;;;;5042592;28;20044;-71
2022/04/01 03:05:43;;;;;;;15.02;9.07;;;-0.80;99.90;;;;;;5039456;28;20036;-71
2022/04/01 03:08:09;;;;;;;;;;;-0.80;99.90;;;;;;5039252;28;20119;-72
2022/04/01 03:10:37;;;;;;;14.85;8.38;;;-0.70;99.90;;;;;;5050897;28;20013;-69
2022/04/01 03:13:03;;;;;;;12.10;8.07;;;-0.80;99.90;;;;;;5041726;28;20049;-69
2022/04/01 03:15:30;;;;;;;13.25;8.38;;;-0.80;99.90;;;;;;5041999;28;20095;-70
2022/04/01 03:17:59;;;;;;;13.95;8.82;;;-0.80;99.90;;;;;;5041802;28;20037;-70
2022/04/01 03:20:26;;;;;;;13.73;9.23;;;-0.80;99.90;;;;;;5041749;28;20048;-70
2022/04/01 03:22:52;;;;;;;16.27;9.35;;;-0.80;99.90;;;;;;5057568;28;20112;-70
2022/04/01 03:25:19;;;;;;;16.25;9.05;;;-0.80;99.90;;;;;;5038454;28;20043;-70
2022/04/01 03:27:48;;;;;;;13.63;8.93;;;-0.80;99.90;;;;;;5040646;28;20687;-71
2022/04/01 03:30:16;;;;;;;14.35;8.65;;;-0.70;99.90;;;;;;5036452;28;20046;-70
2022/04/01 03:32:43;;;;;;;19.65;8.52;;;-0.70;99.90;;;;;;5020120;28;20041;-69
2022/04/01 03:35:16;;;;;;;14.07;9.15;;;-0.70;99.90;;;;;;5021045;28;20554;-69
2022/04/01 03:37:43;;;;;;;14.05;8.63;;;-0.70;99.90;;;;;;5016387;28;20059;-69
2022/04/01 03:40:10;;;;;;;19.55;9.75;;;-0.80;99.90;;;;;;5020796;28;20033;-70
2022/04/01 03:42:35;;;;;;;12.95;8.65;;;-0.80;99.90;;;;;;5023771;28;20037;-70
2022/04/01 03:45:03;;;;;;;13.80;8.88;;;-0.70;99.90;;;;;;5027738;28;20033;-70
2022/04/01 03:47:41;;;;;;;12.15;8.43;;;-0.80;99.90;;;;;;5021933;28;20180;-70
2022/04/01 03:50:10;;;;;;;12.25;8.38;;;-0.80;99.90;;;;;;5018961;28;20214;-69
2022/04/01 03:52:36;;;;;;;15.27;7.90;;;-0.90;99.90;;;;;;5017786;28;20041;-70
2022/04/01 03:55:08;;;;;;;13.63;7.78;;;-0.90;99.90;;;;;;5026512;28;20032;-70
2022/04/01 03:57:36;;;;;;;11.57;8.02;;;-0.90;99.90;;;;;;5028610;28;20049;-70
2022/04/01 04:00:05;;;;;;;13.93;8.07;;;-0.90;99.90;;;;;;5015524;28;20038;-69
2022/04/01 04:02:34;;;;;;;16.67;9.10;;;-0.90;99.90;;;;;;5017615;28;20071;-69
2022/04/01 04:05:02;;;;;;;10.93;7.95;;;-0.90;99.90;;;;;;5019530;28;20038;-70
2022/04/01 04:07:29;;;;;;;13.02;8.35;;;-0.90;99.90;;;;;;5021281;28;20497;-70
2022/04/01 04:09:57;;;;;;;16.35;9.48;;;-0.80;99.90;;;;;;5023832;28;20072;-70
2022/04/01 04:12:25;;;;;;;11.77;8.43;;;-0.80;99.90;;;;;;5024375;28;20041;-70
2022/04/01 04:14:54;;;;;;;12.80;8.15;;;-0.80;99.90;;;;;;5022272;28;20737;-70
2022/04/01 04:17:46;;;;;;;13.10;8.68;;;-0.90;99.90;;;;;;5022320;28;20131;-70
2022/04/01 04:20:24;;;;;;;10.10;7.32;;;-1.00;99.90;;;;;;5023832;28;20057;-69
2022/04/01 04:23:22;;;;;;;11.18;7.55;;;-1.00;99.90;;;;;;5020872;28;20693;-70
2022/04/01 04:26:11;;;;;;;11.13;8.10;;;-1.00;99.90;;;;;;5020873;28;20060;-70
2022/04/01 04:28:40;;;;;;;12.63;8.07;;;-1.00;99.90;;;;;;5022460;28;20061;-70
2022/04/01 04:31:08;;;;;;;13.73;8.07;;;-1.00;99.90;;;;;;5022767;28;20065;-69
2022/04/01 04:33:43;;;;;;;16.42;7.05;;;-0.90;99.90;;;;;;5022191;28;20037;-70
2022/04/01 04:36:10;;;;;;;15.25;8.10;;;-0.90;99.90;;;;;;5021543;28;20605;-70
2022/04/01 04:38:38;;;;;;;10.48;7.50;;;-0.90;99.90;;;;;;5023492;28;20044;-69
2022/04/01 04:41:08;;;;;;;11.35;7.65;;;-1.00;99.90;;;;;;5038370;28;20029;-69
2022/04/01 04:43:40;;;;;;;8.82;6.85;;;-0.90;99.90;;;;;;5022213;28;20437;-69
2022/04/01 04:46:09;;;;;;;11.65;7.20;;;-1.00;99.90;;;;;;5024689;28;20717;-70
2022/04/01 04:48:39;;;;;;;13.00;7.20;;;-1.10;99.90;;;;;;5025311;28;20497;-70
2022/04/01 04:51:05;;;;;;;11.90;7.00;;;-1.00;99.90;;;;;;5025074;28;20037;-69
2022/04/01 04:53:34;;;;;;;10.32;6.60;;;-1.10;99.90;;;;;;5024490;28;20056;-71
2022/04/01 04:56:04;;;;;;;13.23;6.88;;;-1.10;99.90;;;;;;5024183;28;20045;-70
2022/04/01 04:58:36;;;;;;;13.45;7.70;;;-1.10;99.90;;;;;;5024646;28;20083;-70
2022/04/01 05:01:07;;;;;;;12.52;7.20;;;-1.00;99.90;;;;;;5023900;28;20104;-69
2022/04/01 05:03:47;;;;;;;11.57;7.15;;;-1.10;99.90;;;;;;5023960;28;20063;-69
2022/04/01 05:06:17;;;;;;;12.48;6.97;;;-1.10;99.90;;;;;;5024383;28;20486;-70
2022/04/01 05:09:10;;;;;;;11.20;7.22;;;-1.10;99.90;;;;;;5022131;28;20041;-69
2022/04/01 05:11:53;;;;;;;9.75;6.43;;;-1.20;99.90;;;;;;5004008;28;20457;-70
2022/04/01 05:14:37;;;;;;;10.32;6.80;;;-1.20;99.90;;;;;;5022167;28;20049;-70
2022/04/01 05:17:04;;;;;;;8.77;5.78;;;-1.10;99.90;;;;;;5024459;28;20063;-70
2022/04/01 05:19:31;;;;;;;9.73;6.70;;;-1.20;99.90;;;;;;5039590;28;20048;-67
2022/04/01 05:22:09;;;;;;;8.43;5.75;;;-1.10;99.90;;;;;;5024033;28;20042;-66
2022/04/01 05:24:39;;;;;;;10.35;6.10;;;-1.20;99.90;;;;;;5023543;28;20109;-67
2022/04/01 05:27:12;;;;;;;8.70;5.90;;;-1.20;99.90;;;;;;5040327;28;20180;-68
2022/04/01 05:29:42;;;;;;;10.32;5.68;;;-1.20;99.90;;;;;;5024072;28;20123;-67
2022/04/01 05:32:13;;;;;;;7.88;5.90;;;-1.20;99.90;;;;;;5023637;28;20181;-70
2022/04/01 05:34:49;;;;;;;8.95;6.03;;;-1.20;99.90;;;;;;5024203;28;20037;-70
2022/04/01 05:37:16;;;;;;;;;;;-1.20;99.90;;;;;;5024986;28;20040;-73
2022/04/01 05:39:48;;;;;;;7.45;5.53;;;-1.10;99.90;;;;;;5019398;28;19921;-66
2022/04/01 05:42:15;;;;;;;7.75;5.03;;;-1.20;99.90;;;;;;5015264;28;20049;-72
2022/04/01 05:44:43;;;;;;;9.43;5.68;;;-1.20;99.90;;;;;;5020853;28;20041;-68
2022/04/01 05:47:10;;;;;;;7.78;5.30;;;-1.20;99.90;;;;;;5023717;28;20111;-70
2022/04/01 05:49:44;;;;;;;9.02;5.97;;;-1.20;99.90;;;;;;5020911;28;20120;-69
2022/04/01 05:52:11;;;;;;;8.20;5.80;;;-1.20;99.90;;;;;;5022416;28;20809;-68
2022/04/01 05:54:39;;;;;;;8.52;5.88;;;-1.20;99.90;;;;;;5023057;28;20398;-68
2022/04/01 05:57:08;;;;;;;14.40;5.90;;;-1.20;99.90;;;;;;5023407;28;20045;-67
2022/04/01 05:59:33;;;;;;;9.63;5.72;;;-1.10;99.90;;;;;;5014740;28;20029;-66
2022/04/01 06:02:20;;;;;;;7.68;5.68;;;-1.20;99.90;;;;;;5020468;28;20048;-66
2022/04/01 06:05:15;;;;;;;;;;;-1.10;99.90;;;;;;5023563;28;20037;-67
2022/04/01 06:07:55;;;;;;;6.95;4.72;;;-1.10;99.90;;;;;;5012896;28;20328;-67
2022/04/01 06:10:57;;;;;;;7.90;5.43;;;-1.10;99.90;;;;;;5020343;28;20095;-69
2022/04/01 06:13:35;;;;;;;7.80;5.60;;;-1.20;99.90;;;;;;5014475;28;20052;-66
2022/04/01 06:16:01;;;;;;;8.43;5.85;;;-1.20;99.90;;;;;;5022519;28;20052;-67
2022/04/01 06:18:50;;;;;;;7.95;5.75;;;-1.30;99.90;;;;;;5020409;28;20810;-68
2022/04/01 06:21:23;;;;;;;7.30;5.68;;;-1.30;99.90;;;;;;5021551;28;20045;-65
2022/04/01 06:24:10;;;;;;;9.65;5.97;;;-1.20;99.90;;;;;;5016203;28;20032;-67
2022/04/01 06:27:10;;;;;;;7.47;5.68;;;-1.20;99.90;;;;;;5022712;28;20778;-68
2022/04/01 06:29:44;;;;;;;13.82;6.30;;;-1.20;99.90;;;;;;5031490;28;20060;-64
2022/04/01 06:32:22;;;;;;;9.45;6.53;;;-1.30;99.90;;;;;;5018238;28;20046;-68
2022/04/01 06:35:04;;;;;;;8.63;5.72;;;-1.20;99.90;;;;;;5019433;28;20049;-69
2022/04/01 06:37:40;;;;;;;9.55;6.38;;;-1.20;99.90;;;;;;5020215;28;20132;-69
2022/04/01 06:40:11;;;;;;;10.23;6.60;;;-1.20;99.90;;;;;;5037351;28;20041;-69
2022/04/01 06:42:38;;;;;;;8.57;5.75;;;-1.10;99.90;;;;;;5023141;28;20045;-69
2022/04/01 06:45:09;;;;;;;10.48;6.55;;;-1.00;99.90;;;;;;5021619;28;20096;-68
2022/04/01 06:47:35;;;;;;;7.88;5.00;;;-1.10;99.90;;;;;;5022315;28;20555;-70
2022/04/01 06:50:01;;;;;;;9.10;5.82;;;-1.10;99.90;;;;;;5021627;28;20072;-69
2022/04/01 06:52:27;;;;;;;8.90;5.75;;;-1.10;99.90;;;;;;5023974;28;20401;-70
2022/04/01 06:55:11;;;;;;;10.70;5.82;;;-1.10;99.90;;;;;;5019797;28;20113;-69
2022/04/01 06:57:57;;;;;;;11.35;6.40;;;-1.10;99.90;;;;;;5056195;28;20033;-69
2022/04/01 07:00:23;;;;;;;10.50;6.05;;;-1.10;99.90;;;;;;5060880;28;20050;-69
2022/04/01 07:02:49;;;;;;;11.45;7.07;;;-1.10;99.90;;;;;;5042978;28;20036;-69
2022/04/01 07:05:15;;;;;;;31.45;7.45;;;-1.00;99.90;;;;;;5060928;28;20036;-70
2022/04/01 07:07:44;;;;;;;9.43;6.47;;;-1.20;99.90;;;;;;5061347;28;20063;-69
2022/04/01 07:10:13;;;;;;;10.68;6.78;;;-1.20;99.90;;;;;;5064149;28;20048;-69
2022/04/01 07:12:39;;;;;;;10.85;6.50;;;-1.10;99.90;;;;;;5061846;28;20400;-70
2022/04/01 07:15:10;;;;;;;10.30;6.63;;;-1.00;99.90;;;;;;5042653;28;20445;-70
2022/04/01 07:17:35;;;;;;;8.93;6.15;;;-1.00;99.90;;;;;;5061662;28;20043;-71
2022/04/01 07:20:02;;;;;;;7.93;5.45;;;-0.90;99.90;;;;;;5061625;28;20033;-69
2022/04/01 07:22:27;;;;;;;9.68;6.25;;;-0.90;99.90;;;;;;5043465;28;20064;-70
2022/04/01 07:24:53;;;;;;;8.80;5.95;;;-0.90;99.90;;;;;;5060774;28;20052;-71
2022/04/01 07:27:19;;;;;;;9.70;6.22;;;-0.90;99.90;;;;;;5061701;28;21233;-69
2022/04/01 07:29:44;;;;;;;8.38;6.22;;;-0.90;99.90;;;;;;5064422;28;20025;-70
2022/04/01 07:34:55;;;;;;;11.95;6.68;;;-1.10;99.90;;;;;;5062638;28;20115;-71
2022/04/01 07:37:23;;;;;;;10.38;7.22;;;-1.00;99.90;;;;;;5063737;28;20033;-70
2022/04/01 07:39:51;;;;;;;8.70;6.35;;;-0.90;99.90;;;;;;5064160;28;20408;-70
2022/04/01 07:42:18;;;;;;;11.65;7.43;;;-0.90;99.90;;;;;;5064666;28;20032;-69
2022/04/01 07:44:44;;;;;;;10.02;6.78;;;-0.80;99.90;;;;;;5064839;28;20127;-70
2022/04/01 07:47:10;;;;;;;9.95;7.03;;;-0.80;99.90;;;;;;5062287;28;20036;-70
2022/04/01 07:49:37;;;;;;;10.88;6.90;;;-0.80;99.90;;;;;;5063141;28;20807;-70
2022/04/01 07:52:04;;;;;;;10.07;6.55;;;-0.80;99.90;;;;;;5065169;28;20067;-70
2022/04/01 07:54:30;;;;;;;9.48;6.47;;;-0.80;99.90;;;;;;5047313;28;20037;-70
2022/04/01 07:56:56;;;;;;;10.15;6.40;;;-1.00;99.90;;;;;;5066216;28;20039;-69
2022/04/01 07:59:24;;;;;;;10.38;6.40;;;-0.90;99.90;;;;;;5064905;28;20036;-70
2022/04/01 08:01:50;;;;;;;9.75;6.85;;;-0.90;99.90;;;;;;5064435;28;20635;-70
2022/04/01 08:04:34;;;;;;;9.57;6.53;;;-0.80;99.90;;;;;;5063911;28;20135;-70
2022/04/01 08:07:22;;;;;;;10.13;6.13;;;-0.80;99.90;;;;;;5046768;28;20032;-70
2022/04/01 08:10:06;;;;;;;9.40;6.13;;;-0.70;99.90;;;;;;5062650;28;20041;-70
2022/04/01 08:12:34;;;;;;;8.52;6.45;;;-0.70;99.90;;;;;;5063861;28;20600;-70
2022/04/01 08:15:00;;;;;;;10.57;6.07;;;-0.70;99.90;;;;;;5063410;28;20107;-70
2022/04/01 08:17:25;;;;;;;9.23;6.00;;;-0.60;99.90;;;;;;5075440;28;20116;-70
2022/04/01 08:19:51;;;;;;;8.73;6.15;;;-0.60;99.90;;;;;;5064514;28;20710;-69
2022/04/01 08:22:18;;;;;;;9.05;6.38;;;-0.60;99.90;;;;;;5065574;28;20507;-70
2022/04/01 08:24:44;;;;;;;9.10;6.45;;;-0.50;99.90;;;;;;5070031;28;20065;-69
2022/04/01 08:27:11;;;;;;;9.02;6.10;;;-0.60;99.90;;;;;;5065734;28;20033;-69
2022/04/01 08:29:37;;;;;;;9.02;6.30;;;-0.60;99.90;;;;;;5061167;28;20025;-70
2022/04/01 08:32:06;;;;;;;12.38;6.75;;;-0.60;99.90;;;;;;5064690;28;20721;-69
2022/04/01 08:34:32;;;;;;;8.10;5.97;;;-0.60;99.90;;;;;;5074740;28;20091;-70
2022/04/01 08:36:58;;;;;;;9.88;6.30;;;-0.50;99.90;;;;;;5049612;28;20691;-68
2022/04/01 08:39:26;;;;;;;10.60;6.03;;;-0.70;99.90;;;;;;5063619;28;20040;-68
2022/04/01 08:41:51;;;;;;;9.88;6.00;;;-0.60;99.90;;;;;;5043572;28;20032;-69
2022/04/01 08:44:17;;;;;;;10.80;6.78;;;-0.60;99.90;;;;;;5043932;28;20025;-69
2022/04/01 08:46:43;;;;;;;9.95;6.22;;;-0.60;99.90;;;;;;5065478;28;20036;-69
2022/04/01 08:49:09;;;;;;;10.70;6.47;;;-0.60;99.90;;;;;;5063271;28;20523;-69
2022/04/01 08:51:36;;;;;;;11.80;6.47;;;-0.60;99.90;;;;;;5064527;28;20033;-69
2022/04/01 08:54:03;;;;;;;11.73;7.13;;;-0.70;99.90;;;;;;5059310;28;20586;-69
2022/04/01 08:56:29;;;;;;;9.73;6.40;;;-0.80;99.90;;;;;;5057460;28;20032;-69
2022/04/01 08:58:55;;;;;;;8.70;6.32;;;-0.70;99.90;;;;;;5062990;28;20032;-69
2022/04/01 09:01:20;;;;;;;10.43;6.78;;;-0.80;99.90;;;;;;5063166;28;20029;-69
2022/04/01 09:03:46;;;;;;;9.10;6.50;;;-0.80;99.90;;;;;;5063395;28;20748;-70
2022/04/01 09:06:11;;;;;;;10.50;6.57;;;-0.90;99.90;;;;;;5063416;28;20072;-69
2022/04/01 09:08:46;;;;;;;10.25;6.72;;;-0.90;99.90;;;;;;5064490;28;20555;-69
2022/04/01 09:11:16;;;;;;;14.95;6.72;;;-0.80;99.90;;;;;;5062588;28;20031;-69
2022/04/01 09:13:51;;;;;;;11.55;6.65;;;-0.80;99.90;;;;;;5063852;28;20907;-69
2022/04/01 09:16:28;;;;;;;11.75;7.70;;;-0.80;99.90;;;;;;5063479;28;20107;-69
2022/04/01 09:18:59;;;;;;;11.32;7.35;;;-1.00;99.90;;;;;;5063999;28;20496;-69
2022/04/01 09:21:30;;;;;;;12.25;7.65;;;-1.00;99.90;;;;;;5047395;28;20036;-69
2022/04/01 09:23:57;;;;;;;10.43;7.15;;;-1.00;99.90;;;;;;5064335;28;20066;-68
2022/04/01 09:26:39;;;;;;;11.10;7.20;;;-1.00;99.90;;;;;;5062806;28;20094;-68
2022/04/01 09:29:07;;;;;;;11.38;8.00;;;-0.90;99.90;;;;;;5064017;28;20092;-68
2022/04/01 09:31:36;;;;;;;9.65;7.30;;;-1.00;99.90;;;;;;5062537;28;20076;-68
2022/04/01 09:34:06;;;;;;;13.65;8.10;;;-1.00;99.90;;;;;;5045774;28;20031;-68
2022/04/01 09:36:33;;;;;;;12.60;7.15;;;-0.90;99.90;;;;;;5064223;28;20036;-68
2022/04/01 09:39:09;;;;;;;13.80;7.63;;;-0.90;99.90;;;;;;5062757;28;20052;-68
2022/04/01 09:41:42;;;;;;;11.90;7.50;;;-0.80;99.90;;;;;;5063331;28;20041;-68
2022/04/01 09:44:15;;;;;;;13.20;7.53;;;-0.80;99.90;;;;;;5063907;28;20049;-68
2022/04/01 09:46:48;;;;;;;10.60;7.22;;;-0.70;99.90;;;;;;5071036;28;20033;-68
2022/04/01 09:49:27;;;;;;;11.50;7.88;;;-0.70;99.90;;;;;;5064193;28;20032;-68
2022/04/01 09:51:53;;;;;;;13.18;7.90;;;-0.70;99.90;;;;;;5062647;28;20047;-68
2022/04/01 09:54:18;;;;;;;12.40;8.10;;;-0.70;99.90;;;;;;5064624;28;20032;-68
2022/04/01 09:56:46;;;;;;;13.35;8.38;;;-0.70;99.90;;;;;;5065163;28;20032;-68
2022/04/01 09:59:16;;;;;;;10.55;7.72;;;-0.70;99.90;;;;;;5044940;28;20131;-68
2022/04/01 10:01:43;;;;;;;11.15;7.60;;;-0.70;99.90;;;;;;5044707;28;20083;-68
2022/04/01 10:04:10;;;;;;;12.52;8.30;;;-0.90;99.90;;;;;;5064354;28;20521;-69
2022/04/01 10:06:37;;;;;;;11.77;8.35;;;-0.90;99.90;;;;;;5036552;28;20040;-70
2022/04/01 10:09:11;;;;;;;13.48;8.65;;;-0.80;99.90;;;;;;5064399;28;20028;-70
2022/04/01 10:11:39;;;;;;;12.43;8.02;;;-0.80;99.90;;;;;;5063389;28;20155;-69
2022/04/01 10:14:29;;;;;;;16.20;8.52;;;-0.70;99.90;;;;;;5059295;28;20025;-69
2022/04/01 10:16:58;;;;;;;12.07;8.50;;;-0.70;99.90;;;;;;5049674;28;20055;-69
2022/04/01 10:19:29;;;;;;;13.77;7.88;;;-0.70;99.90;;;;;;5063397;28;20032;-70
2022/04/01 10:21:55;;;;;;;13.70;8.05;;;-0.50;99.90;;;;;;5065374;28;20028;-69
2022/04/01 10:24:27;;;;;;;14.15;8.85;;;-0.50;99.90;;;;;;5084017;28;20043;-69
2022/04/01 10:27:18;;;;;;;13.88;7.53;;;-0.50;99.90;;;;;;5066811;28;20054;-69
2022/04/01 10:29:45;;;;;;;13.02;8.90;;;-0.70;99.90;;;;;;5046521;28;20047;-69
2022/04/01 10:32:37;;;;;;;11.68;7.85;;;-0.80;99.90;;;;;;5045495;28;20044;-69
2022/04/01 10:35:06;;;;;;;14.20;8.48;;;-0.70;99.90;;;;;;5059586;28;20048;-69
2022/04/01 10:37:33;;;;;;;13.73;8.02;;;-0.60;99.90;;;;;;5070172;28;20101;-69
2022/04/01 10:40:04;;;;;;;12.40;8.02;;;-0.70;99.90;;;;;;5082456;28;20055;-68
2022/04/01 10:42:35;;;;;;;12.20;7.78;;;-0.70;99.90;;;;;;5085873;28;20036;-68
2022/04/01 10:45:08;;;;;;;12.45;7.70;;;-0.60;99.90;;;;;;5066627;28;20040;-68
2022/04/01 10:53:45;;;;;;;12.85;7.25;;;-0.80;99.90;;;;;;5066472;28;20040;-68
2022/04/01 10:56:26;;;;;;;11.23;7.43;;;-0.60;99.90;;;;;;5081725;28;20048;-69
2022/04/01 10:59:17;;;;;;;9.82;6.47;;;-0.80;99.90;;;;;;5082132;28;20040;-69
2022/04/01 11:01:52;;;;;;;13.93;7.07;;;-0.80;99.90;;;;;;5080892;28;20735;-70
2022/04/01 11:04:18;;;;;;;9.23;6.10;;;-0.80;99.90;;;;;;5072749;28;20058;-71
2022/04/01 11:06:51;;;;;;;11.38;7.50;;;-0.70;99.90;;;;;;5079648;28;20669;-69
2022/04/01 11:09:40;;;;;;;9.55;6.50;;;-0.80;99.90;;;;;;5080981;28;20114;-70
2022/04/01 11:12:14;;;;;;;10.32;6.13;;;-0.70;99.90;;;;;;5083426;28;20039;-70
2022/04/01 11:17:32;;;;;;;11.35;6.50;;;-0.60;99.90;;;;;;5072450;28;20075;-68
2022/04/01 11:20:04;;;;;;;10.55;6.38;;;-0.70;99.90;;;;;;5081024;28;20039;-68
2022/04/01 11:22:38;;;;;;;10.40;6.50;;;-0.70;99.90;;;;;;5088378;28;20538;-66
2022/04/01 11:25:04;;;;;;;8.30;5.60;;;-0.90;99.90;;;;;;5078562;28;20036;-69
2022/04/01 11:27:30;;;;;;;9.82;5.88;;;-0.90;99.90;;;;;;5076237;28;20098;-67
2022/04/01 11:30:14;;;;;;;11.57;6.00;;;-0.80;99.90;;;;;;5081070;28;20092;-67
2022/04/01 11:32:41;;;;;;;9.50;6.07;;;-0.80;99.90;;;;;;5058414;28;20051;-67
2022/04/01 11:35:10;;;;;;;10.55;7.10;;;-0.90;99.90;;;;;;5072992;28;20091;-68
2022/04/01 11:37:46;;;;;;;9.45;5.80;;;-1.00;99.90;;;;;;5062063;28;20040;-70
2022/04/01 11:40:15;;;;;;;11.98;6.68;;;-0.90;99.90;;;;;;5083161;28;20048;-68
2022/04/01 11:43:02;;;;;;;9.63;5.78;;;-1.00;99.90;;;;;;5083128;28;20035;-68
2022/04/01 11:45:30;;;;;;;9.95;6.20;;;-1.10;99.90;;;;;;5087500;28;20545;-70
2022/04/01 11:47:55;;;;;;;10.38;6.22;;;-1.10;99.90;;;;;;5064691;28;20048;-68
2022/04/01 11:50:23;;;;;;;11.15;6.65;;;-1.10;99.90;;;;;;5076698;28;20036;-69
2022/04/01 11:52:52;;;;;;;9.25;6.45;;;-1.10;99.90;;;;;;5081878;28;20063;-68
2022/04/01 11:55:23;;;;;;;14.27;7.38;;;-1.00;99.90;;;;;;5081731;28;20077;-66
2022/04/01 11:57:51;;;;;;;12.25;6.95;;;-1.10;99.90;;;;;;5080697;28;20072;-66
2022/04/01 12:00:19;;;;;;;11.20;6.82;;;-1.20;99.90;;;;;;5081361;28;20101;-66
2022/04/01 12:02:47;;;;;;;13.15;6.82;;;-1.20;99.90;;;;;;5081825;28;20048;-66
2022/04/01 12:05:14;;;;;;;12.40;7.10;;;-1.20;99.90;;;;;;5063919;28;20114;-66
2022/04/01 12:10:29;;;;;;;14.10;6.38;;;-1.10;99.90;;;;;;5075750;28;20042;-66
2022/04/01 12:12:56;;;;;;;13.95;6.32;;;-1.10;99.90;;;;;;5082683;28;20793;-66
2022/04/01 12:15:41;;;;;;;11.68;6.57;;;-1.10;99.90;;;;;;5082432;28;20411;-66
2022/04/01 12:18:16;;;;;;;10.45;6.45;;;-1.10;99.90;;;;;;5103647;28;20039;-66
2022/04/01 12:20:45;;;;;;;11.77;6.95;;;-1.10;99.90;;;;;;5092347;28;20050;-66
2022/04/01 12:23:12;;;;;;;13.55;6.53;;;-1.20;99.90;;;;;;5085602;28;20442;-66
2022/04/01 12:25:39;;;;;;;9.95;6.18;;;-1.10;99.90;;;;;;5085372;28;20495;-66
2022/04/01 12:28:11;;;;;;;12.77;6.90;;;-1.00;99.90;;;;;;5085141;28;20044;-66
2022/04/01 12:30:50;;;;;;;12.07;6.75;;;-1.00;99.90;;;;;;5084860;28;20062;-66
2022/04/01 12:33:25;;;;;;;11.52;7.20;;;-1.00;99.90;;;;;;5085124;28;20117;-67
2022/04/01 12:36:02;;;;;;;14.68;7.70;;;-1.10;99.90;;;;;;5084498;28;20648;-66
2022/04/01 12:38:32;;;;;;;11.95;7.25;;;-1.10;99.90;;;;;;5085780;28;20514;-66
2022/04/01 12:41:00;;;;;;;16.45;6.65;;;-1.00;99.90;;;;;;5084918;28;20036;-66
2022/04/01 12:43:49;;;;;;;11.90;6.20;;;-0.90;99.90;;;;;;5086375;28;20733;-66
2022/04/01 12:46:18;;;;;;;9.85;6.13;;;-0.90;99.90;;;;;;5067274;28;20492;-66
2022/04/01 12:48:51;;;;;;;11.82;6.50;;;-0.80;99.90;;;;;;5085184;28;20463;-66
2022/04/01 12:51:22;;;;;;;14.85;6.13;;;-0.80;99.90;;;;;;5067129;28;20128;-66
2022/04/01 12:53:54;;;;;;;14.27;6.00;;;-0.90;99.90;;;;;;5085347;28;20090;-66
2022/04/01 12:56:22;;;;;;;9.63;5.50;;;-0.90;99.90;;;;;;5085924;28;20052;-66
2022/04/01 12:58:49;;;;;;;14.15;6.35;;;-0.90;99.90;;;;;;5085703;28;20044;-67
2022/04/01 13:01:23;;;;;;;11.50;6.30;;;-0.80;99.90;;;;;;5075113;28;20040;-66
2022/04/01 13:03:49;;;;;;;11.05;5.82;;;-0.90;99.90;;;;;;5046302;28;20542;-66
2022/04/01 13:06:16;;;;;;;9.95;5.75;;;-0.80;99.90;;;;;;5046134;28;20128;-66
2022/04/01 13:08:43;;;;;;;15.38;6.32;;;-0.70;99.90;;;;;;5062428;28;20044;-68
2022/04/01 13:11:15;;;;;;;9.32;5.82;;;-0.70;99.90;;;;;;5064473;28;20516;-66
2022/04/01 13:13:41;;;;;;;16.60;6.18;;;-0.70;99.90;;;;;;5063981;28;20063;-66
2022/04/01 13:16:08;;;;;;;23.33;6.32;;;-0.60;99.90;;;;;;5054091;28;20049;-67